createdAt,value
2019-01-23T00:06:46.966Z,65.57
2019-01-23T00:16:52.297Z,67.70
2019-01-23T00:26:57.594Z,71.23
2019-01-23T00:37:02.925Z,68.67
2019-01-23T00:47:08.234Z,79.23
2019-01-23T00:57:13.607Z,76.13
2019-01-23T01:07:18.898Z,75.63
2019-01-23T01:17:25.297Z,57.73
2019-01-23T01:27:30.613Z,54.63
2019-01-23T01:37:35.873Z,54.77
2019-01-23T01:47:41.257Z,64.37
2019-01-23T01:57:46.583Z,56.10
2019-01-23T02:07:51.968Z,59.67
2019-01-23T02:17:57.269Z,63.50
2019-01-23T02:28:02.626Z,49.13
2019-01-23T02:38:07.979Z,48.70
2019-01-23T02:48:13.358Z,51.20
2019-01-23T02:58:18.715Z,53.57
2019-01-23T03:08:24.040Z,58.50
2019-01-23T03:18:29.375Z,54.67
2019-01-23T03:28:34.665Z,55.93
2019-01-23T03:38:40.144Z,55.30
2019-01-23T03:48:45.463Z,54.23
2019-01-23T03:58:50.972Z,48.60
2019-01-23T04:08:56.357Z,50.53
2019-01-23T04:19:01.769Z,47.63
2019-01-23T04:29:07.115Z,47.93
2019-01-23T04:39:12.480Z,46.43
2019-01-23T04:49:17.785Z,56.23
2019-01-23T04:59:23.088Z,52.33
2019-01-23T05:09:28.414Z,58.83
2019-01-23T05:19:33.759Z,48.03
2019-01-23T05:29:39.230Z,51.20
2019-01-23T05:39:45.002Z,55.13
2019-01-23T05:49:50.371Z,50.23
2019-01-23T06:00:02.317Z,44.73
2019-01-23T06:10:03.660Z,54.83
2019-01-23T06:20:11.225Z,52.97
2019-01-23T06:30:21.761Z,53.93
2019-01-23T06:40:27.122Z,50.50
2019-01-23T06:50:32.484Z,51.23
2019-01-23T07:00:37.853Z,50.83
2019-01-23T07:10:43.272Z,53.10
2019-01-23T07:20:48.502Z,51.50
2019-01-23T07:30:53.963Z,47.33
2019-01-23T07:40:59.423Z,51.33
2019-01-23T07:51:04.789Z,38.33
2019-01-23T08:01:10.195Z,44.57
2019-01-23T08:11:15.578Z,42.63
2019-01-23T08:21:20.924Z,43.77
2019-01-23T08:31:26.377Z,48.10
2019-01-23T08:41:31.758Z,50.03
2019-01-23T08:51:37.183Z,46.23
2019-01-23T09:01:42.643Z,42.83
2019-01-23T09:11:48.006Z,42.87
2019-01-23T09:21:53.571Z,39.90
2019-01-23T09:32:17.051Z,46.47
2019-01-23T09:42:44.636Z,37.97
2019-01-23T09:53:13.120Z,42.70
2019-01-23T10:03:22.934Z,40.43
2019-01-23T10:13:25.578Z,38.93
2019-01-23T10:23:32.070Z,44.13
2019-01-23T10:33:37.702Z,41.20
2019-01-23T10:43:43.348Z,35.73
2019-01-23T10:53:49.346Z,40.30
2019-01-23T11:03:55.084Z,28.83
2019-01-23T11:14:00.678Z,25.87
2019-01-23T11:24:06.440Z,31.67
2019-01-23T11:34:11.998Z,30.00
2019-01-23T11:44:17.535Z,24.60
2019-01-23T11:54:23.176Z,25.23
2019-01-23T12:04:28.768Z,27.63
2019-01-23T12:14:34.411Z,23.20
2019-01-23T12:24:40.110Z,23.87
2019-01-23T12:34:45.952Z,29.50
2019-01-23T12:44:51.666Z,24.73
2019-01-23T12:54:57.231Z,23.20
2019-01-23T13:05:03.063Z,23.43
2019-01-23T13:15:10.654Z,27.37
2019-01-23T13:25:18.149Z,25.40
2019-01-23T13:35:29.030Z,26.37
2019-01-23T13:45:34.721Z,22.00
2019-01-23T13:55:40.373Z,19.57
2019-01-23T14:05:46.063Z,18.97
2019-01-23T14:15:51.665Z,22.13
2019-01-23T14:25:57.433Z,23.43
2019-01-23T14:36:03.163Z,25.37
2019-01-23T14:46:08.797Z,18.13
2019-01-23T14:56:14.386Z,21.83
2019-01-23T15:06:20.052Z,21.50
2019-01-23T15:16:25.829Z,21.30
2019-01-23T15:26:31.391Z,27.07
2019-01-23T15:36:36.994Z,28.83
2019-01-23T15:46:42.507Z,29.37
2019-01-23T15:56:48.048Z,26.00
2019-01-23T16:06:53.747Z,25.97
2019-01-23T16:16:59.305Z,20.50
2019-01-23T16:27:05.085Z,27.43
2019-01-23T16:37:10.871Z,26.53
2019-01-23T16:47:16.418Z,20.77
2019-01-23T18:24:46.058Z,20.10
2019-01-23T18:51:08.615Z,20.63
2019-01-23T19:01:14.394Z,20.33
2019-01-23T19:11:19.764Z,19.63
2019-01-23T19:21:25.071Z,12.80
2019-01-23T19:31:30.526Z,21.73
2019-01-23T19:41:35.982Z,28.63
2019-01-23T19:51:41.275Z,26.23
2019-01-23T20:01:46.684Z,22.40
2019-01-23T20:11:51.978Z,22.13
2019-01-23T20:21:57.338Z,26.73
2019-01-23T20:32:03.655Z,26.60
2019-01-23T20:42:09.033Z,26.50
2019-01-23T20:52:14.396Z,29.17
2019-01-23T21:02:19.946Z,27.07
2019-01-23T21:12:25.276Z,25.93
2019-01-23T21:22:30.589Z,27.50
2019-01-23T21:32:35.915Z,26.17
2019-01-23T21:42:41.895Z,25.33
2019-01-23T21:52:47.214Z,26.90
2019-01-23T22:02:53.639Z,22.00
2019-01-23T22:12:58.947Z,24.50
2019-01-23T22:23:04.450Z,27.57
2019-01-23T22:33:09.748Z,23.67
2019-01-23T22:43:16.080Z,21.27
2019-01-23T22:53:21.407Z,20.20
2019-01-23T23:03:26.710Z,18.83
2019-01-23T23:13:32.025Z,25.57
2019-01-23T23:23:37.399Z,20.30
2019-01-23T23:33:42.868Z,24.57
2019-01-23T23:43:48.187Z,23.33
2019-01-23T23:53:53.522Z,22.30
